Time;durP1;ratioP1;P1;durP2;ratioP2;P2;SDS_P1;SDS_P2;PMS_P1;PMS_P2;Temp;Humidity;BMP_temperature;BMP_pressure;BME280_temperature;BME280_humidity;BME280_pressure;Samples;Min_cycle;Max_cycle;Signal;HPM_P1;HPM_P2
2022/08/09 00:01:18;;;;;;;4.00;3.30;;;15.40;99.90;;;;;;5082813;28;20181;-80
2022/08/09 00:03:44;;;;;;;4.17;3.10;;;15.40;99.90;;;;;;5076242;28;20181;-80
2022/08/09 00:06:10;;;;;;;3.67;2.77;;;;;;;;;;5077493;28;20184;-81
2022/08/09 00:08:35;;;;;;;3.00;2.80;;;15.20;99.90;;;;;;5076881;28;20287;-81
2022/08/09 00:11:02;;;;;;;3.40;3.10;;;;;;;;;;5077699;28;20274;-81
2022/08/09 00:13:28;;;;;;;5.10;3.07;;;15.20;99.90;;;;;;5076006;28;20177;-81
2022/08/09 00:15:54;;;;;;;3.40;2.80;;;15.00;99.90;;;;;;5076548;28;20183;-81
2022/08/09 00:18:20;;;;;;;2.83;2.63;;;;;;;;;;5075686;28;20201;-81
2022/08/09 00:20:46;;;;;;;4.13;3.07;;;;;;;;;;5077184;28;20177;-80
2022/08/09 00:23:13;;;;;;;3.50;3.20;;;;;;;;;;5075764;28;20181;-80
2022/08/09 00:25:39;;;;;;;3.40;3.10;;;;;;;;;;5077344;28;20165;-80
2022/08/09 00:28:05;;;;;;;7.80;3.57;;;;;;;;;;5075392;28;20173;-82
2022/08/09 00:30:32;;;;;;;3.40;3.03;;;;;;;;;;5075645;28;20212;-80
2022/08/09 00:32:58;;;;;;;5.13;3.20;;;;;;;;;;5077065;28;20172;-80
2022/08/09 00:35:24;;;;;;;3.27;2.80;;;;;;;;;;5075342;28;20630;-80
2022/08/09 00:37:50;;;;;;;3.43;3.00;;;;;;;;;;5076264;28;20180;-81
2022/08/09 00:40:16;;;;;;;3.30;3.00;;;;;;;;;;5076265;28;20204;-80
2022/08/09 00:42:43;;;;;;;3.90;2.97;;;;;;;;;;5077835;28;20180;-81
2022/08/09 00:45:09;;;;;;;6.60;3.20;;;14.90;99.90;;;;;;5076010;28;20593;-80
2022/08/09 00:47:35;;;;;;;5.67;3.07;;;14.80;99.90;;;;;;5076284;28;20268;-81
2022/08/09 00:50:01;;;;;;;9.53;3.60;;;;;;;;;;5078348;28;20247;-80
2022/08/09 00:52:28;;;;;;;4.23;3.33;;;;;;;;;;5075983;28;20176;-80
2022/08/09 00:54:55;;;;;;;5.57;3.17;;;;;;;;;;5075870;28;20176;-81
2022/08/09 00:57:21;;;;;;;5.07;3.53;;;;;;;;;;5076264;28;20177;-81
2022/08/09 00:59:47;;;;;;;3.20;2.90;;;;;;;;;;5077629;28;20308;-80
2022/08/09 01:02:18;;;;;;;5.33;3.17;;;;;;;;;;5076396;28;20183;-81
2022/08/09 01:05:06;;;;;;;3.83;3.40;;;14.70;99.90;;;;;;5078367;28;20179;-81
2022/08/09 01:08:09;;;;;;;3.50;3.20;;;14.70;99.90;;;;;;5078936;28;20259;-81
2022/08/09 01:10:35;;;;;;;6.67;3.20;;;;;;;;;;5078005;28;20235;-81
2022/08/09 01:13:12;;;;;;;3.70;3.40;;;;;;;;;;5083185;28;20181;-81
2022/08/09 01:15:44;;;;;;;4.67;3.57;;;14.60;99.90;;;;;;5086018;28;20176;-81
2022/08/09 01:18:15;;;;;;;4.07;3.60;;;14.50;99.90;;;;;;5077978;28;20200;-80
2022/08/09 01:20:47;;;;;;;3.97;3.57;;;;;;;;;;5075614;28;20241;-80
2022/08/09 01:23:16;;;;;;;3.87;3.47;;;;;;;;;;5077212;28;20665;-80
2022/08/09 01:25:52;;;;;;;3.83;3.50;;;;;;;;;;5077500;28;20188;-80
2022/08/09 01:28:19;;;;;;;4.23;3.50;;;;;;;;;;5076820;28;20515;-80
2022/08/09 01:30:46;;;;;;;7.17;3.60;;;;;;;;;;5076777;28;20300;-80
2022/08/09 01:33:12;;;;;;;4.13;3.30;;;;;;;;;;5076932;28;20646;-80
2022/08/09 01:35:58;;;;;;;3.83;3.50;;;14.40;99.90;;;;;;5078414;28;20247;-80
2022/08/09 01:38:26;;;;;;;4.40;3.50;;;;;;;;;;5081566;28;20677;-80
2022/08/09 01:41:06;;;;;;;7.57;4.10;;;14.40;99.90;;;;;;5081962;28;20622;-80
2022/08/09 01:43:36;;;;;;;6.63;4.03;;;14.30;99.90;;;;;;5076828;28;20625;-80
2022/08/09 01:46:02;;;;;;;4.60;3.40;;;14.40;99.90;;;;;;5076189;28;20681;-80
2022/08/09 01:48:29;;;;;;;5.43;3.70;;;14.40;99.90;;;;;;5076676;28;20246;-80
2022/08/09 01:50:57;;;;;;;4.37;3.50;;;14.30;99.90;;;;;;5075952;28;20200;-81
2022/08/09 01:53:24;;;;;;;4.00;3.60;;;14.30;99.90;;;;;;5076205;28;20169;-81
2022/08/09 01:55:53;;;;;;;3.70;3.40;;;14.30;99.90;;;;;;5076008;28;20180;-80
2022/08/09 01:58:19;;;;;;;3.97;3.67;;;14.20;99.90;;;;;;5074401;28;20656;-81
2022/08/09 02:00:46;;;;;;;3.93;3.53;;;14.20;99.90;;;;;;5075710;28;20198;-80
2022/08/09 02:03:14;;;;;;;5.47;3.73;;;14.10;99.90;;;;;;5076030;28;20203;-80
2022/08/09 02:05:43;;;;;;;4.87;3.80;;;14.10;99.90;;;;;;5075612;28;20534;-80
2022/08/09 02:08:11;;;;;;;4.00;3.60;;;13.90;99.90;;;;;;5074460;28;20177;-81
2022/08/09 02:10:40;;;;;;;5.23;4.07;;;13.90;99.90;;;;;;5074937;28;20595;-80
2022/08/09 02:13:11;;;;;;;4.00;3.70;;;13.90;99.90;;;;;;5074654;28;20186;-80
2022/08/09 02:15:41;;;;;;;5.50;4.30;;;13.90;99.90;;;;;;5076119;28;20167;-80
2022/08/09 02:18:07;;;;;;;6.07;4.47;;;13.90;99.90;;;;;;5075266;28;20176;-81
2022/08/09 02:20:39;;;;;;;4.97;4.23;;;13.80;99.90;;;;;;5074944;28;20181;-80
2022/08/09 02:23:11;;;;;;;5.03;4.10;;;13.90;99.90;;;;;;5075748;28;20184;-80
2022/08/09 02:25:40;;;;;;;4.83;4.43;;;13.80;99.90;;;;;;5075746;28;20181;-80
2022/08/09 02:28:16;;;;;;;4.40;4.00;;;13.80;99.90;;;;;;5075209;28;20231;-80
2022/08/09 02:30:49;;;;;;;5.47;4.40;;;13.70;99.90;;;;;;5077793;28;20222;-80
2022/08/09 02:33:23;;;;;;;6.43;4.63;;;13.70;99.90;;;;;;5078210;28;20177;-80
2022/08/09 02:35:53;;;;;;;5.57;4.97;;;13.70;99.90;;;;;;5078152;28;20177;-80
2022/08/09 02:38:26;;;;;;;5.20;4.70;;;13.70;99.90;;;;;;5079058;28;20177;-81
2022/08/09 02:40:55;;;;;;;6.10;5.50;;;13.70;99.90;;;;;;5077973;28;20188;-80
2022/08/09 02:43:23;;;;;;;5.50;4.80;;;13.70;99.90;;;;;;5078308;28;20185;-80
2022/08/09 02:45:51;;;;;;;8.03;4.90;;;13.70;99.90;;;;;;5079360;28;20177;-81
2022/08/09 02:48:18;;;;;;;5.53;5.03;;;13.60;99.90;;;;;;5077719;28;20197;-80
2022/08/09 02:50:55;;;;;;;6.63;4.93;;;13.70;99.90;;;;;;5079285;28;20200;-80
2022/08/09 02:53:28;;;;;;;6.40;5.00;;;13.60;99.90;;;;;;5079606;28;20182;-81
2022/08/09 02:55:57;;;;;;;6.10;4.73;;;13.60;99.90;;;;;;5079751;28;20575;-81
2022/08/09 02:58:26;;;;;;;5.30;4.80;;;13.50;99.90;;;;;;5077200;28;20197;-81
2022/08/09 03:00:53;;;;;;;4.67;4.30;;;13.50;99.90;;;;;;5078375;28;20190;-81
2022/08/09 03:03:20;;;;;;;7.47;4.67;;;13.50;99.90;;;;;;5079349;28;20215;-81
2022/08/09 03:05:49;;;;;;;5.00;4.53;;;13.50;99.90;;;;;;5078107;28;20657;-81
2022/08/09 03:08:16;;;;;;;7.10;5.13;;;13.40;99.90;;;;;;5079087;28;20221;-80
2022/08/09 03:10:44;;;;;;;4.57;4.10;;;13.40;99.90;;;;;;5089640;28;20241;-80
2022/08/09 03:13:10;;;;;;;5.83;4.50;;;13.40;99.90;;;;;;5087954;28;20173;-80
2022/08/09 03:15:38;;;;;;;5.47;4.97;;;13.30;99.90;;;;;;5079420;28;20199;-81
2022/08/09 03:18:05;;;;;;;6.27;5.17;;;13.20;99.90;;;;;;5079468;28;20184;-81
2022/08/09 03:20:31;;;;;;;6.00;5.23;;;13.20;99.90;;;;;;5086883;28;20260;-81
2022/08/09 03:22:58;;;;;;;6.43;5.53;;;13.10;99.90;;;;;;5090852;28;20214;-81
2022/08/09 03:25:26;;;;;;;5.80;5.20;;;13.10;99.90;;;;;;5081905;28;20184;-81
2022/08/09 03:27:54;;;;;;;5.10;4.70;;;13.10;99.90;;;;;;5076932;28;20554;-80
2022/08/09 03:30:20;;;;;;;5.00;4.50;;;13.10;99.90;;;;;;5077151;28;20299;-81
2022/08/09 03:32:46;;;;;;;5.13;4.63;;;13.10;99.90;;;;;;5077462;28;20177;-81
2022/08/09 03:35:12;;;;;;;6.73;5.07;;;13.10;99.90;;;;;;5077338;28;20271;-81
2022/08/09 03:37:41;;;;;;;5.30;4.80;;;13.10;99.90;;;;;;5077409;28;20220;-80
2022/08/09 03:40:07;;;;;;;7.63;4.93;;;13.00;99.90;;;;;;5078911;28;20197;-81
2022/08/09 03:42:33;;;;;;;6.83;4.63;;;13.00;99.90;;;;;;5077773;28;20200;-81
2022/08/09 03:44:59;;;;;;;5.43;4.63;;;13.00;99.90;;;;;;5080510;28;20208;-81
2022/08/09 03:47:25;;;;;;;5.80;5.17;;;12.90;99.90;;;;;;5078701;28;20202;-81
2022/08/09 03:49:52;;;;;;;5.80;4.93;;;12.90;99.90;;;;;;5076767;28;20428;-81
2022/08/09 03:52:19;;;;;;;5.30;4.80;;;12.90;99.90;;;;;;5079366;28;20242;-81
2022/08/09 03:54:48;;;;;;;5.57;5.07;;;12.90;99.90;;;;;;5078161;28;20542;-82
2022/08/09 03:57:14;;;;;;;6.13;5.33;;;12.90;99.90;;;;;;5077921;28;20264;-83
2022/08/09 03:59:40;;;;;;;6.93;5.20;;;12.80;99.90;;;;;;5082489;28;20197;-82
2022/08/09 04:02:06;;;;;;;8.27;5.10;;;12.80;99.90;;;;;;5077588;28;20173;-81
2022/08/09 04:04:34;;;;;;;6.53;5.93;;;12.80;99.90;;;;;;5077467;28;20186;-82
2022/08/09 04:07:00;;;;;;;6.30;5.63;;;12.80;99.90;;;;;;5078319;28;20179;-82
2022/08/09 04:09:27;;;;;;;5.97;5.40;;;12.70;99.90;;;;;;5076723;28;20565;-82
2022/08/09 04:12:05;;;;;;;8.23;5.40;;;12.70;99.90;;;;;;5077741;28;20208;-83
2022/08/09 04:14:31;;;;;;;6.33;5.70;;;12.70;99.90;;;;;;5077447;28;20165;-82
2022/08/09 04:16:56;;;;;;;5.77;5.23;;;12.70;99.90;;;;;;5077081;28;20177;-82
2022/08/09 04:19:22;;;;;;;5.90;5.40;;;12.70;99.90;;;;;;5078526;28;20189;-82
2022/08/09 04:21:48;;;;;;;8.60;5.40;;;12.70;99.90;;;;;;5077786;28;20184;-82
2022/08/09 04:24:14;;;;;;;6.10;5.47;;;12.70;99.90;;;;;;5078061;28;20168;-82
2022/08/09 04:26:40;;;;;;;5.60;5.03;;;12.70;99.90;;;;;;5077166;28;20635;-82
2022/08/09 04:29:08;;;;;;;7.27;5.40;;;12.70;99.90;;;;;;5078225;28;20271;-83
2022/08/09 04:31:34;;;;;;;8.40;6.27;;;12.70;99.90;;;;;;5077346;28;20238;-82
2022/08/09 04:34:00;;;;;;;6.07;5.57;;;12.70;99.90;;;;;;5080199;28;20180;-81
2022/08/09 04:36:28;;;;;;;5.50;5.00;;;12.70;99.90;;;;;;5077646;28;20186;-81
2022/08/09 04:38:55;;;;;;;6.53;5.73;;;12.70;99.90;;;;;;5078581;28;20253;-82
2022/08/09 04:41:22;;;;;;;6.70;6.10;;;12.70;99.90;;;;;;5078228;28;20181;-82
2022/08/09 04:43:48;;;;;;;6.13;5.53;;;12.70;99.90;;;;;;5081268;28;20656;-82
2022/08/09 04:46:13;;;;;;;6.27;5.67;;;12.80;99.90;;;;;;5080717;28;20227;-82
2022/08/09 04:48:39;;;;;;;6.70;6.07;;;12.80;99.90;;;;;;5083255;28;20199;-82
2022/08/09 04:51:05;;;;;;;8.03;7.27;;;12.80;99.90;;;;;;5076682;28;20650;-82
2022/08/09 04:53:30;;;;;;;7.40;6.70;;;12.80;99.90;;;;;;5076660;28;20180;-82
2022/08/09 04:55:56;;;;;;;8.53;6.07;;;12.90;99.90;;;;;;5076096;28;20216;-82
2022/08/09 04:58:22;;;;;;;8.47;7.13;;;13.00;99.90;;;;;;5076258;28;20197;-82
2022/08/09 05:00:47;;;;;;;7.63;6.70;;;13.10;99.90;;;;;;5076103;28;20220;-82
2022/08/09 05:03:13;;;;;;;7.13;6.43;;;13.20;99.90;;;;;;5077618;28;20175;-82
2022/08/09 05:05:39;;;;;;;8.27;7.47;;;13.30;99.90;;;;;;5077212;28;20183;-81
2022/08/09 05:08:05;;;;;;;8.67;5.93;;;13.30;99.90;;;;;;5077228;28;20176;-81
2022/08/09 05:10:30;;;;;;;8.00;6.57;;;13.40;99.90;;;;;;5076449;28;20620;-81
2022/08/09 05:12:57;;;;;;;7.83;6.13;;;13.40;99.90;;;;;;5076993;28;20207;-81
2022/08/09 05:15:25;;;;;;;6.20;5.53;;;13.50;99.90;;;;;;5076598;28;20547;-81
2022/08/09 05:17:50;;;;;;;6.63;5.93;;;13.60;99.90;;;;;;5076849;28;20181;-81
2022/08/09 05:20:16;;;;;;;7.07;6.30;;;13.60;99.90;;;;;;5077850;28;20229;-82
2022/08/09 05:22:42;;;;;;;7.50;6.50;;;13.60;99.90;;;;;;5077718;28;20188;-81
2022/08/09 05:25:08;;;;;;;6.30;5.70;;;13.70;99.90;;;;;;5078191;28;20275;-81
2022/08/09 05:27:34;;;;;;;12.87;6.33;;;13.70;99.90;;;;;;5082996;28;20208;-82
2022/08/09 05:30:00;;;;;;;18.13;6.27;;;13.80;99.90;;;;;;5088855;28;20275;-82
2022/08/09 05:32:25;;;;;;;8.47;5.73;;;13.80;99.90;;;;;;5079408;28;20169;-80
2022/08/09 05:34:51;;;;;;;7.73;6.40;;;13.80;99.90;;;;;;5079013;28;20191;-80
2022/08/09 05:37:17;;;;;;;7.13;6.10;;;13.80;99.90;;;;;;5075243;28;20272;-81
2022/08/09 05:39:43;;;;;;;7.43;5.90;;;13.90;99.90;;;;;;5076580;28;20568;-80
2022/08/09 05:42:09;;;;;;;7.53;5.90;;;14.00;99.90;;;;;;5076861;28;20177;-80
2022/08/09 05:44:35;;;;;;;7.43;5.87;;;14.10;99.90;;;;;;5077701;28;20177;-80
2022/08/09 05:47:00;;;;;;;9.70;6.03;;;14.30;99.90;;;;;;5077985;28;20180;-81
2022/08/09 05:49:26;;;;;;;6.43;5.60;;;14.30;99.90;;;;;;5078178;28;20727;-81
2022/08/09 05:51:52;;;;;;;12.33;5.50;;;14.30;99.90;;;;;;5079034;28;20208;-81
2022/08/09 05:54:17;;;;;;;6.47;5.53;;;14.30;99.90;;;;;;5077597;28;20623;-81
2022/08/09 05:56:43;;;;;;;10.50;6.23;;;14.30;99.90;;;;;;5076884;28;20177;-81
2022/08/09 05:59:09;;;;;;;8.17;5.87;;;14.30;99.90;;;;;;5077587;28;20200;-82
2022/08/09 06:01:34;;;;;;;8.50;5.90;;;14.40;99.90;;;;;;5078902;28;20214;-81
2022/08/09 06:04:01;;;;;;;14.60;6.20;;;14.40;99.90;;;;;;5077927;28;20248;-81
2022/08/09 06:06:27;;;;;;;12.67;6.00;;;14.50;99.90;;;;;;5080863;28;20184;-81
2022/08/09 06:08:53;;;;;;;6.93;5.50;;;14.50;99.90;;;;;;5080472;28;20213;-81
2022/08/09 06:11:19;;;;;;;15.97;5.83;;;14.60;99.90;;;;;;5079207;28;20197;-81
2022/08/09 06:13:45;;;;;;;8.83;5.57;;;14.70;99.90;;;;;;5080492;28;20177;-81
2022/08/09 06:16:11;;;;;;;5.77;4.97;;;14.80;99.90;;;;;;5078905;28;20203;-81
2022/08/09 06:18:37;;;;;;;8.43;5.70;;;14.90;99.90;;;;;;5079837;28;20189;-81
2022/08/09 06:21:04;;;;;;;5.23;4.73;;;14.90;99.90;;;;;;5078907;28;20215;-81
2022/08/09 06:23:31;;;;;;;8.47;5.23;;;15.00;99.90;;;;;;5078229;28;20543;-81
2022/08/09 06:25:57;;;;;;;8.30;5.37;;;15.10;99.90;;;;;;5080260;28;20185;-77
2022/08/09 06:28:23;;;;;;;10.50;5.40;;;15.20;99.90;;;;;;5079269;28;20748;-80
2022/08/09 06:30:49;;;;;;;5.07;4.30;;;15.30;99.90;;;;;;5079267;28;20201;-81
2022/08/09 06:33:15;;;;;;;7.43;4.97;;;15.50;99.90;;;;;;5065024;28;20272;-81
2022/08/09 06:35:40;;;;;;;8.67;4.70;;;15.50;99.90;;;;;;5076032;28;20231;-81
2022/08/09 06:38:06;;;;;;;5.53;4.60;;;15.60;99.90;;;;;;5060087;28;20205;-80
2022/08/09 06:40:32;;;;;;;5.30;4.63;;;15.70;99.90;;;;;;5058738;28;20181;-81
2022/08/09 06:42:59;;;;;;;6.03;4.70;;;15.80;99.90;;;;;;5058317;28;20594;-79
2022/08/09 06:45:26;;;;;;;7.43;5.10;;;15.90;99.90;;;;;;5058170;28;20205;-79
2022/08/09 06:47:51;;;;;;;5.53;5.03;;;16.10;99.90;;;;;;5059070;28;20192;-80
2022/08/09 06:50:17;;;;;;;5.70;5.10;;;16.20;99.90;;;;;;5059693;28;20201;-80
2022/08/09 06:52:46;;;;;;;5.60;4.40;;;16.40;99.90;;;;;;5057938;28;20261;-80
2022/08/09 06:55:17;;;;;;;10.20;4.83;;;16.50;99.90;;;;;;5060459;28;20722;-81
2022/08/09 06:57:42;;;;;;;6.47;4.93;;;16.60;99.90;;;;;;5060163;28;20603;-80
2022/08/09 07:00:09;;;;;;;5.00;3.80;;;16.70;99.90;;;;;;5059703;28;20230;-81
2022/08/09 07:02:35;;;;;;;3.80;3.33;;;16.80;99.90;;;;;;5059148;28;20383;-81
2022/08/09 07:05:01;;;;;;;13.33;4.57;;;17.00;99.90;;;;;;5074226;28;20227;-80
2022/08/09 07:07:27;;;;;;;3.10;2.47;;;17.20;99.90;;;;;;5077830;28;20180;-80
2022/08/09 07:09:53;;;;;;;3.67;2.30;;;17.40;99.90;;;;;;5071042;28;20237;-81
2022/08/09 07:12:19;;;;;;;2.97;2.27;;;17.60;99.90;;;;;;5058747;28;20224;-81
2022/08/09 07:14:45;;;;;;;3.47;2.10;;;17.80;99.90;;;;;;5059218;28;20170;-81
2022/08/09 07:17:13;;;;;;;3.23;2.47;;;18.00;99.90;;;;;;5060316;28;20176;-81
2022/08/09 07:19:39;;;;;;;3.30;2.30;;;18.30;99.90;;;;;;5059429;28;20219;-82
2022/08/09 07:22:05;;;;;;;2.93;2.50;;;18.30;99.90;;;;;;5061973;28;20177;-81
2022/08/09 07:24:31;;;;;;;3.23;2.30;;;18.50;99.90;;;;;;5068554;28;20639;-81
2022/08/09 07:26:57;;;;;;;3.13;2.10;;;18.70;99.90;;;;;;5058886;28;20182;-82
2022/08/09 07:29:23;;;;;;;3.63;2.23;;;18.70;99.90;;;;;;5058673;28;20226;-81
2022/08/09 07:31:49;;;;;;;2.83;2.33;;;18.80;99.90;;;;;;5061060;28;20263;-81
2022/08/09 07:34:15;;;;;;;2.20;2.00;;;19.00;99.90;;;;;;5063429;28;20732;-81
2022/08/09 07:36:40;;;;;;;2.73;2.37;;;19.00;99.90;;;;;;5065163;28;20173;-82
2022/08/09 07:39:06;;;;;;;3.27;2.70;;;19.20;99.90;;;;;;5083516;28;20227;-81
2022/08/09 07:41:32;;;;;;;2.87;2.10;;;19.30;99.90;;;;;;5081236;28;20181;-80
2022/08/09 07:43:58;;;;;;;2.20;2.00;;;19.40;99.90;;;;;;5079102;28;20180;-80
2022/08/09 07:46:26;;;;;;;2.20;2.00;;;19.50;99.90;;;;;;5079956;28;20174;-80
2022/08/09 07:48:52;;;;;;;3.30;2.60;;;19.60;99.90;;;;;;5060185;28;20233;-80
2022/08/09 07:51:18;;;;;;;3.67;2.30;;;19.70;99.90;;;;;;5078553;28;20196;-80
2022/08/09 07:53:44;;;;;;;3.53;2.57;;;20.00;99.90;;;;;;5057990;28;20182;-80
2022/08/09 07:56:10;;;;;;;2.50;2.03;;;20.00;99.90;;;;;;5059937;28;20170;-80
2022/08/09 07:58:37;;;;;;;4.43;2.43;;;20.20;99.90;;;;;;5058341;28;20229;-80
2022/08/09 08:01:03;;;;;;;3.10;2.10;;;20.30;99.90;;;;;;5057724;28;20191;-80
2022/08/09 08:03:29;;;;;;;2.80;1.93;;;20.40;99.90;;;;;;5057213;28;20270;-80
2022/08/09 08:05:55;;;;;;;4.10;1.97;;;20.60;99.90;;;;;;5057798;28;20204;-79
2022/08/09 08:08:21;;;;;;;4.77;2.07;;;20.80;99.90;;;;;;5068190;28;20636;-79
2022/08/09 08:10:47;;;;;;;9.30;2.13;;;20.80;99.90;;;;;;5078140;28;20202;-79
2022/08/09 08:13:12;;;;;;;1.93;1.77;;;20.90;99.90;;;;;;5077160;28;20634;-79
2022/08/09 08:15:38;;;;;;;3.40;1.70;;;21.10;99.90;;;;;;5061818;28;20202;-81
2022/08/09 08:18:04;;;;;;;2.10;1.90;;;21.30;99.90;;;;;;5077964;28;20179;-79
2022/08/09 08:20:30;;;;;;;2.10;1.90;;;21.60;99.90;;;;;;5079197;28;20176;-79
2022/08/09 08:22:57;;;;;;;2.10;1.90;;;21.60;99.90;;;;;;5077285;28;20172;-79
2022/08/09 08:25:23;;;;;;;2.47;1.83;;;21.80;99.90;;;;;;5077883;28;20202;-80
2022/08/09 08:27:48;;;;;;;3.93;1.90;;;22.00;99.90;;;;;;5076617;28;20177;-79
2022/08/09 08:30:17;;;;;;;3.53;1.97;;;22.00;99.90;;;;;;5077405;28;20201;-80
2022/08/09 08:32:43;;;;;;;2.77;1.83;;;22.20;99.90;;;;;;5076746;28;20648;-80
2022/08/09 08:35:09;;;;;;;4.70;2.10;;;22.30;99.90;;;;;;5076282;28;20180;-79
2022/08/09 08:37:35;;;;;;;7.70;2.20;;;22.40;99.90;;;;;;5078140;28;20318;-81
2022/08/09 08:40:02;;;;;;;2.53;1.70;;;22.60;99.90;;;;;;5079293;28;20192;-82
2022/08/09 08:42:29;;;;;;;1.87;1.70;;;22.60;99.90;;;;;;5077507;28;20173;-79
2022/08/09 08:44:56;;;;;;;3.40;1.80;;;22.80;99.90;;;;;;5079489;28;20232;-79
2022/08/09 08:47:24;;;;;;;3.10;1.63;;;22.80;99.90;;;;;;5080807;28;20172;-79
2022/08/09 08:49:50;;;;;;;2.10;1.70;;;22.80;99.90;;;;;;5078985;28;20192;-79
2022/08/09 08:52:18;;;;;;;2.97;1.70;;;22.90;99.90;;;;;;5077192;28;20187;-79
2022/08/09 08:54:44;;;;;;;3.80;1.70;;;23.00;99.90;;;;;;5078442;28;20169;-79
2022/08/09 08:57:10;;;;;;;2.47;2.27;;;23.10;99.90;;;;;;5076129;28;20533;-80
2022/08/09 08:59:36;;;;;;;2.00;1.70;;;23.20;99.90;;;;;;5077602;28;20289;-80
2022/08/09 09:02:03;;;;;;;3.03;2.20;;;23.40;99.90;;;;;;5077272;28;20173;-80
2022/08/09 09:04:31;;;;;;;1.90;1.50;;;23.50;99.90;;;;;;5077775;28;20623;-80
2022/08/09 09:07:02;;;;;;;2.93;1.47;;;23.60;99.90;;;;;;5076748;28;20200;-80
2022/08/09 09:09:29;;;;;;;2.23;1.60;;;23.60;99.90;;;;;;5077690;28;20654;-80
2022/08/09 09:11:57;;;;;;;4.03;1.97;;;23.70;99.90;;;;;;5076988;28;20198;-80
2022/08/09 09:14:25;;;;;;;4.47;1.80;;;23.80;99.90;;;;;;5076824;28;20267;-81
2022/08/09 09:16:51;;;;;;;3.37;1.80;;;24.00;99.90;;;;;;5078259;28;20173;-79
2022/08/09 09:19:17;;;;;;;1.70;1.60;;;24.20;99.90;;;;;;5078177;28;20206;-79
2022/08/09 09:22:03;;;;;;;1.80;1.37;;;24.60;99.90;;;;;;5078405;28;20220;-80
2022/08/09 09:24:39;;;;;;;2.40;1.50;;;24.60;99.90;;;;;;5080422;28;20170;-80
2022/08/09 09:27:07;;;;;;;1.83;1.37;;;24.80;99.90;;;;;;5081065;28;20184;-80
2022/08/09 09:29:40;;;;;;;9.73;1.60;;;24.80;99.90;;;;;;5078168;28;20197;-82
2022/08/09 09:32:07;;;;;;;8.33;1.93;;;24.80;99.90;;;;;;5079023;28;20204;-81
2022/08/09 09:34:33;;;;;;;3.60;1.60;;;24.90;99.90;;;;;;5077301;28;20171;-80
2022/08/09 09:37:00;;;;;;;5.20;1.57;;;24.90;99.90;;;;;;5078146;28;20171;-81
2022/08/09 09:39:28;;;;;;;5.63;1.87;;;25.10;99.90;;;;;;5079028;28;20228;-81
2022/08/09 09:41:55;;;;;;;3.13;1.30;;;25.20;99.90;;;;;;5082368;28;20184;-82
2022/08/09 09:44:29;;;;;;;2.70;1.70;;;25.20;99.90;;;;;;5082693;28;20210;-81
2022/08/09 09:47:03;;;;;;;2.33;1.50;;;25.30;99.90;;;;;;5082000;28;20174;-80
2022/08/09 09:49:29;;;;;;;1.97;1.30;;;25.30;99.90;;;;;;5086031;28;20225;-82
2022/08/09 09:52:03;;;;;;;1.50;1.40;;;25.40;99.90;;;;;;5084590;28;20197;-80
2022/08/09 09:54:46;;;;;;;1.57;1.20;;;25.50;99.90;;;;;;5080604;28;20183;-81
2022/08/09 09:57:14;;;;;;;1.83;1.20;;;25.60;99.90;;;;;;5079525;28;20174;-81
2022/08/09 09:59:40;;;;;;;5.13;1.70;;;25.80;99.90;;;;;;5079858;28;20561;-79
2022/08/09 10:02:07;;;;;;;1.57;1.30;;;25.90;99.90;;;;;;5081051;28;20174;-80
2022/08/09 10:04:32;;;;;;;9.33;1.63;;;25.90;99.90;;;;;;5080303;28;20185;-80
2022/08/09 10:06:58;;;;;;;4.00;1.27;;;26.00;98.10;;;;;;5082556;28;20568;-82
2022/08/09 10:09:24;;;;;;;2.60;1.47;;;25.90;98.00;;;;;;5081368;28;20355;-78
2022/08/09 10:12:01;;;;;;;2.00;1.47;;;25.80;99.90;;;;;;5082150;28;20348;-78
2022/08/09 10:14:29;;;;;;;3.60;1.70;;;26.00;99.90;;;;;;5077561;28;20167;-77
2022/08/09 10:16:55;;;;;;;1.37;1.20;;;26.40;99.90;;;;;;5078447;28;20270;-80
2022/08/09 10:19:36;;;;;;;1.70;1.50;;;26.50;99.90;;;;;;5077887;28;20276;-78
2022/08/09 10:22:02;;;;;;;1.77;1.30;;;26.80;97.00;;;;;;5080003;28;20175;-78
2022/08/09 10:24:28;;;;;;;3.00;1.40;;;26.80;97.20;;;;;;5079549;28;20192;-79
2022/08/09 10:26:56;;;;;;;5.23;1.50;;;27.10;98.10;;;;;;5078763;28;20251;-78
2022/08/09 10:29:23;;;;;;;2.07;1.70;;;27.00;99.10;;;;;;5079415;28;20564;-78
2022/08/09 10:31:49;;;;;;;2.60;1.50;;;27.10;99.90;;;;;;5077910;28;20193;-78
2022/08/09 10:34:15;;;;;;;1.87;1.23;;;27.20;96.30;;;;;;5078147;28;20180;-79
2022/08/09 10:36:42;;;;;;;3.57;1.57;;;27.50;98.90;;;;;;5079606;28;20172;-79
2022/08/09 10:39:08;;;;;;;5.33;1.37;;;27.80;97.70;;;;;;5077784;28;20657;-79
2022/08/09 10:41:34;;;;;;;3.07;1.73;;;27.80;98.00;;;;;;5078269;28;20173;-79
2022/08/09 10:44:01;;;;;;;2.97;1.30;;;27.90;95.70;;;;;;5077916;28;20177;-79
2022/08/09 10:46:47;;;;;;;2.43;1.53;;;27.80;96.40;;;;;;5077841;28;20177;-79
2022/08/09 10:49:18;;;;;;;1.83;1.60;;;27.50;92.60;;;;;;5067644;28;20212;-80
2022/08/09 10:51:49;;;;;;;4.77;1.30;;;27.50;93.30;;;;;;5078471;28;20186;-78
2022/08/09 10:54:21;;;;;;;1.90;1.37;;;27.60;96.90;;;;;;5079451;28;20223;-79
2022/08/09 10:56:47;;;;;;;1.80;1.40;;;27.90;97.70;;;;;;5079439;28;20171;-79
2022/08/09 10:59:21;;;;;;;2.93;1.30;;;28.20;94.70;;;;;;5079240;28;20686;-79
2022/08/09 11:01:48;;;;;;;1.70;1.40;;;28.20;93.40;;;;;;5077929;28;20211;-79
2022/08/09 11:04:19;;;;;;;2.83;1.40;;;28.30;93.80;;;;;;5078078;28;20175;-79
2022/08/09 11:06:47;;;;;;;3.57;1.20;;;28.40;97.50;;;;;;5078177;28;20297;-78
2022/08/09 11:09:16;;;;;;;1.77;1.20;;;28.80;94.60;;;;;;5078935;28;20240;-79
2022/08/09 11:11:56;;;;;;;1.50;1.40;;;29.10;94.70;;;;;;5063666;28;20287;-81
2022/08/09 11:14:49;;;;;;;3.10;1.20;;;29.10;94.30;;;;;;5059073;28;20172;-81
2022/08/09 11:17:15;;;;;;;2.60;1.30;;;29.10;95.10;;;;;;5060078;28;20168;-81
2022/08/09 11:19:59;;;;;;;2.23;1.23;;;29.20;91.10;;;;;;5061256;28;20222;-82
2022/08/09 11:22:42;;;;;;;1.73;1.20;;;29.30;92.30;;;;;;5061948;28;20174;-81
2022/08/09 11:25:11;;;;;;;1.40;1.23;;;29.40;94.00;;;;;;5062488;28;20185;-82
2022/08/09 11:27:42;;;;;;;3.10;1.43;;;29.50;90.80;;;;;;5060913;28;20173;-81
2022/08/09 11:30:32;;;;;;;1.83;1.20;;;29.50;94.40;;;;;;5059767;28;20189;-81
2022/08/09 11:33:24;;;;;;;5.67;1.27;;;29.40;94.00;;;;;;5060107;28;20261;-81
2022/08/09 11:36:00;;;;;;;4.70;1.50;;;29.60;98.90;;;;;;5059301;28;20692;-81
2022/08/09 11:38:28;;;;;;;2.53;1.43;;;29.70;98.00;;;;;;5058759;28;20173;-81
2022/08/09 11:40:54;;;;;;;3.23;1.30;;;29.80;91.50;;;;;;5058737;28;20207;-81
2022/08/09 11:43:29;;;;;;;5.13;1.20;;;29.90;91.70;;;;;;5060081;28;20260;-81
2022/08/09 11:46:05;;;;;;;4.40;1.60;;;30.00;91.30;;;;;;5060749;28;20180;-81
2022/08/09 11:48:33;;;;;;;3.33;1.60;;;29.70;87.60;;;;;;5059860;28;20203;-82
2022/08/09 11:51:06;;;;;;;3.73;1.37;;;29.90;89.80;;;;;;5059652;28;20204;-82
2022/08/09 11:53:34;;;;;;;1.83;1.50;;;29.80;85.20;;;;;;5059785;28;20231;-82
2022/08/09 11:56:26;;;;;;;5.10;1.57;;;29.80;89.70;;;;;;5062195;28;20173;-82
2022/08/09 11:58:57;;;;;;;3.83;1.40;;;29.80;88.40;;;;;;5065751;28;20192;-82
2022/08/09 12:01:37;;;;;;;10.60;1.53;;;29.90;90.80;;;;;;5060702;28;20606;-81
2022/08/09 12:04:13;;;;;;;2.93;1.30;;;29.70;85.30;;;;;;5059973;28;20175;-82
2022/08/09 12:06:48;;;;;;;2.13;1.67;;;30.00;86.80;;;;;;5059653;28;20169;-81
2022/08/09 12:09:14;;;;;;;2.87;1.40;;;;;;;;;;5059666;28;20216;-82
2022/08/09 12:11:40;;;;;;;1.70;1.40;;;;;;;;;;5060031;28;20216;-82
2022/08/09 12:14:09;;;;;;;2.97;1.77;;;30.30;84.40;;;;;;5060752;28;20626;-82
2022/08/09 12:16:41;;;;;;;2.20;1.57;;;30.30;86.00;;;;;;5058814;28;20235;-82
2022/08/09 12:19:08;;;;;;;2.17;1.50;;;30.20;89.70;;;;;;5062074;28;20217;-82
2022/08/09 12:21:40;;;;;;;2.33;1.50;;;30.10;81.20;;;;;;5061749;28;20220;-80
2022/08/09 12:24:08;;;;;;;3.43;1.60;;;30.00;90.30;;;;;;5060915;28;20205;-81
2022/08/09 12:26:49;;;;;;;2.90;1.47;;;30.10;88.70;;;;;;5059996;28;20181;-81
2022/08/09 12:29:25;;;;;;;2.33;1.40;;;30.30;90.10;;;;;;5060343;28;20190;-81
2022/08/09 12:32:01;;;;;;;2.00;1.40;;;30.30;88.90;;;;;;5060392;28;20181;-81
2022/08/09 12:34:32;;;;;;;2.37;1.47;;;30.40;87.10;;;;;;5060250;28;20173;-80
2022/08/09 12:36:59;;;;;;;4.33;1.50;;;30.50;87.10;;;;;;5059970;28;20185;-81
2022/08/09 12:39:25;;;;;;;1.87;1.20;;;30.40;84.70;;;;;;5061451;28;20185;-82
2022/08/09 12:41:51;;;;;;;4.00;1.27;;;30.40;82.10;;;;;;5061441;28;20198;-81
2022/08/09 12:44:17;;;;;;;1.73;1.50;;;30.40;82.50;;;;;;5058596;28;20188;-81
2022/08/09 12:46:46;;;;;;;1.87;1.57;;;30.30;87.10;;;;;;5058233;28;20647;-81
2022/08/09 12:49:12;;;;;;;4.93;2.07;;;30.50;83.70;;;;;;5064318;28;20292;-82
2022/08/09 12:51:38;;;;;;;6.67;2.10;;;30.70;83.90;;;;;;5063337;28;20184;-81
2022/08/09 12:54:05;;;;;;;2.67;1.70;;;30.70;84.20;;;;;;5058870;28;20623;-81
2022/08/09 12:56:32;;;;;;;7.33;1.60;;;30.80;83.10;;;;;;5059152;28;20192;-81
2022/08/09 12:59:12;;;;;;;5.70;1.70;;;30.80;82.00;;;;;;5058777;28;20189;-81
2022/08/09 13:01:45;;;;;;;1.87;1.20;;;30.90;81.70;;;;;;5059702;28;20208;-82